Time;durP1;ratioP1;P1;durP2;ratioP2;P2;SDS_P1;SDS_P2;PMS_P1;PMS_P2;Temp;Humidity;BMP_temperature;BMP_pressure;BME280_temperature;BME280_humidity;BME280_pressure;Samples;Min_cycle;Max_cycle;Signal;HPM_P1;HPM_P2
2021/04/14 00:01:07;;;;;;;2.10;0.40;;;3.60;99.90;;;;;;5006686;28;20114;-66
2021/04/14 00:03:34;;;;;;;1.38;0.40;;;3.50;99.90;;;;;;5011686;28;20042;-69
2021/04/14 00:06:02;;;;;;;1.98;0.20;;;3.50;99.90;;;;;;5005795;28;20448;-67
2021/04/14 00:08:30;;;;;;;0.52;0.50;;;3.50;99.90;;;;;;5009464;28;20045;-66
2021/04/14 00:10:56;;;;;;;2.35;0.30;;;3.50;99.90;;;;;;5007062;28;20077;-69
2021/04/14 00:13:27;;;;;;;1.48;0.30;;;3.40;99.90;;;;;;5010975;28;20057;-67
2021/04/14 00:15:56;;;;;;;0.52;0.32;;;3.40;99.90;;;;;;5003309;28;20046;-66
2021/04/14 00:18:23;;;;;;;0.50;0.22;;;3.40;99.90;;;;;;5014272;28;20534;-66
2021/04/14 00:20:50;;;;;;;0.50;0.30;;;3.30;99.90;;;;;;5004830;28;20049;-66
2021/04/14 00:23:20;;;;;;;1.35;0.73;;;3.30;99.90;;;;;;5006662;28;20172;-66
2021/04/14 00:25:48;;;;;;;;;;;3.30;99.90;;;;;;5005332;28;20053;-65
2021/04/14 00:28:17;;;;;;;1.77;0.40;;;3.20;99.90;;;;;;5002714;28;19932;-66
2021/04/14 00:30:44;;;;;;;2.60;0.28;;;3.20;99.90;;;;;;5004781;28;20053;-70
2021/04/14 00:33:11;;;;;;;2.00;0.90;;;3.20;99.90;;;;;;5006692;28;20076;-66
2021/04/14 00:35:38;;;;;;;0.47;0.20;;;3.10;99.90;;;;;;5001730;28;20057;-66
2021/04/14 00:38:06;;;;;;;0.85;0.50;;;3.10;99.90;;;;;;5004953;28;20053;-69
2021/04/14 00:40:36;;;;;;;0.45;0.30;;;3.10;99.90;;;;;;4986791;28;20505;-66
2021/04/14 00:43:14;;;;;;;2.45;0.40;;;3.10;99.90;;;;;;5009546;28;20369;-67
2021/04/14 00:45:41;;;;;;;1.55;0.40;;;3.00;99.90;;;;;;5000322;28;20046;-66
2021/04/14 00:48:09;;;;;;;2.05;0.47;;;3.00;99.90;;;;;;5004958;28;20045;-66
2021/04/14 00:50:36;;;;;;;1.02;0.50;;;3.00;99.90;;;;;;5005779;28;20072;-66
2021/04/14 00:53:03;;;;;;;1.05;0.43;;;3.00;99.90;;;;;;5008108;28;20412;-69
2021/04/14 00:55:31;;;;;;;1.60;0.40;;;2.90;99.90;;;;;;5003911;28;20050;-65
2021/04/14 00:57:58;;;;;;;0.40;0.35;;;2.90;99.90;;;;;;5002735;28;20341;-67
2021/04/14 01:00:47;;;;;;;0.63;0.30;;;2.90;99.90;;;;;;5003946;28;20546;-66
2021/04/14 01:03:27;;;;;;;0.70;0.40;;;2.90;99.90;;;;;;5013751;28;20065;-70
2021/04/14 01:05:55;;;;;;;1.42;0.40;;;2.90;99.90;;;;;;5004132;28;20455;-67
2021/04/14 01:08:23;;;;;;;1.00;0.40;;;2.80;99.90;;;;;;4979182;28;20549;-65
2021/04/14 01:10:50;;;;;;;1.23;0.50;;;2.80;99.90;;;;;;5003530;28;20049;-65
2021/04/14 01:13:17;;;;;;;0.60;0.30;;;2.90;99.90;;;;;;5006137;28;20038;-68
2021/04/14 01:15:46;;;;;;;2.05;0.68;;;2.90;99.90;;;;;;5002167;28;20041;-66
2021/04/14 01:18:16;;;;;;;1.95;0.68;;;2.80;99.90;;;;;;5002960;28;20419;-65
2021/04/14 01:20:42;;;;;;;4.05;0.93;;;2.80;99.90;;;;;;5003876;28;20368;-70
2021/04/14 01:23:09;;;;;;;1.98;0.57;;;2.80;99.90;;;;;;5002713;28;20578;-67
2021/04/14 01:25:38;;;;;;;2.78;0.32;;;2.80;99.90;;;;;;4986336;28;20111;-66
2021/04/14 01:28:07;;;;;;;1.25;0.57;;;2.80;99.90;;;;;;5002443;28;20136;-66
2021/04/14 01:30:34;;;;;;;1.67;0.47;;;2.70;99.90;;;;;;5003556;28;20045;-67
2021/04/14 01:33:01;;;;;;;1.75;0.30;;;2.70;99.90;;;;;;5006182;28;20287;-66
2021/04/14 01:35:28;;;;;;;1.25;0.57;;;2.70;99.90;;;;;;5003037;28;20045;-66
2021/04/14 01:37:56;;;;;;;0.40;0.30;;;2.70;99.90;;;;;;5000718;28;20050;-67
2021/04/14 01:40:24;;;;;;;1.65;0.60;;;2.70;99.90;;;;;;4985925;28;20112;-68
2021/04/14 01:42:51;;;;;;;1.15;0.68;;;2.70;99.90;;;;;;5008714;28;20046;-66
2021/04/14 01:45:22;;;;;;;1.77;0.60;;;2.70;99.90;;;;;;4996642;28;20146;-65
2021/04/14 01:47:48;;;;;;;1.13;0.40;;;2.70;99.90;;;;;;5005424;28;20060;-68
2021/04/14 01:50:14;;;;;;;0.30;0.30;;;2.70;99.90;;;;;;5001668;28;20061;-68
2021/04/14 01:52:41;;;;;;;7.30;0.68;;;2.70;99.90;;;;;;5008597;28;20053;-67
2021/04/14 01:55:10;;;;;;;1.27;0.40;;;2.70;99.90;;;;;;5002681;28;20053;-67
2021/04/14 01:57:36;;;;;;;2.95;0.50;;;2.60;99.90;;;;;;5000725;28;20045;-66
2021/04/14 02:00:15;;;;;;;2.47;0.73;;;2.70;99.90;;;;;;4999694;28;20049;-65
2021/04/14 02:02:42;;;;;;;5.15;1.80;;;2.70;99.90;;;;;;5005175;28;20049;-68
2021/04/14 02:05:11;;;;;;;3.47;0.85;;;2.70;99.90;;;;;;5002119;28;20121;-67
2021/04/14 02:07:37;;;;;;;1.02;0.43;;;2.70;99.90;;;;;;5003518;28;20053;-68
2021/04/14 02:10:06;;;;;;;1.00;0.30;;;2.70;99.90;;;;;;4982647;28;20045;-67
2021/04/14 02:12:32;;;;;;;1.75;0.55;;;2.70;99.90;;;;;;5007976;28;20057;-65
2021/04/14 02:14:59;;;;;;;6.43;0.80;;;2.60;99.90;;;;;;5001623;28;20066;-67
2021/04/14 02:17:26;;;;;;;1.02;0.52;;;2.70;99.90;;;;;;5002515;28;20112;-66
2021/04/14 02:19:52;;;;;;;2.08;0.60;;;2.70;99.90;;;;;;5000226;28;20062;-66
2021/04/14 02:22:19;;;;;;;1.20;0.60;;;2.70;99.90;;;;;;5006181;28;20061;-67
2021/04/14 02:24:45;;;;;;;4.72;0.65;;;2.70;99.90;;;;;;5002896;28;20423;-68
2021/04/14 02:27:12;;;;;;;1.00;0.40;;;2.70;99.90;;;;;;5004267;28;20147;-65
2021/04/14 02:29:38;;;;;;;1.00;0.90;;;2.70;99.90;;;;;;5000468;28;20080;-68
2021/04/14 02:32:05;;;;;;;0.63;0.38;;;2.60;99.90;;;;;;5001071;28;20041;-66
2021/04/14 02:34:32;;;;;;;4.22;0.80;;;2.60;99.90;;;;;;4999559;28;20050;-66
2021/04/14 02:36:58;;;;;;;4.80;0.80;;;2.50;99.90;;;;;;5000950;28;20053;-66
2021/04/14 02:39:25;;;;;;;6.05;0.75;;;2.50;99.90;;;;;;5004381;28;20400;-66
2021/04/14 02:41:51;;;;;;;2.58;0.50;;;2.50;99.90;;;;;;4996835;28;20049;-66
2021/04/14 02:44:17;;;;;;;3.33;0.90;;;2.50;99.90;;;;;;4997032;28;20115;-69
2021/04/14 02:46:44;;;;;;;0.45;0.40;;;2.50;99.90;;;;;;5003862;28;20042;-66
2021/04/14 02:49:11;;;;;;;2.67;0.60;;;2.50;99.90;;;;;;5000143;28;20056;-70
2021/04/14 02:51:37;;;;;;;1.48;0.70;;;2.60;99.90;;;;;;5005792;28;20119;-65
2021/04/14 02:54:04;;;;;;;1.48;0.40;;;2.60;99.90;;;;;;5001647;28;20452;-68
2021/04/14 02:56:31;;;;;;;3.83;0.68;;;2.70;99.90;;;;;;5006009;28;20053;-67
2021/04/14 02:58:57;;;;;;;1.75;0.90;;;2.70;99.90;;;;;;4998260;28;20576;-70
2021/04/14 03:01:27;;;;;;;8.02;1.58;;;2.70;99.90;;;;;;5004217;28;20487;-66
2021/04/14 03:03:53;;;;;;;1.60;0.60;;;2.70;99.90;;;;;;4999227;28;20081;-66
2021/04/14 03:06:20;;;;;;;1.30;0.47;;;2.70;99.90;;;;;;4998393;28;20149;-65
2021/04/14 03:08:47;;;;;;;1.10;0.68;;;2.80;99.90;;;;;;5000606;28;20135;-66
2021/04/14 03:11:13;;;;;;;3.20;0.80;;;2.80;99.90;;;;;;5007858;28;20052;-66
2021/04/14 03:13:40;;;;;;;0.73;0.57;;;2.90;99.90;;;;;;4998051;28;20426;-69
2021/04/14 03:16:07;;;;;;;0.55;0.55;;;2.90;99.90;;;;;;5002369;28;20046;-65
2021/04/14 03:18:33;;;;;;;0.65;0.40;;;2.90;99.90;;;;;;4999483;28;20089;-67
2021/04/14 03:21:00;;;;;;;0.50;0.40;;;2.90;99.90;;;;;;5003863;28;20378;-68
2021/04/14 03:23:27;;;;;;;0.88;0.50;;;3.00;99.90;;;;;;5000499;28;20068;-67
2021/04/14 03:25:53;;;;;;;1.70;0.50;;;3.00;99.90;;;;;;4997589;28;20124;-66
2021/04/14 03:28:20;;;;;;;2.42;0.77;;;3.00;99.90;;;;;;4997586;28;20049;-66
2021/04/14 03:30:46;;;;;;;3.83;0.80;;;3.00;99.90;;;;;;5006891;28;20107;-66
2021/04/14 03:33:13;;;;;;;4.28;0.95;;;3.00;99.90;;;;;;5004279;28;20057;-66
2021/04/14 03:35:40;;;;;;;1.65;1.00;;;3.00;99.90;;;;;;4987493;28;20045;-67
2021/04/14 03:38:06;;;;;;;3.00;2.75;;;3.10;99.90;;;;;;4999925;28;20042;-67
2021/04/14 03:40:33;;;;;;;1.63;0.57;;;3.10;99.90;;;;;;5005513;28;20439;-64
2021/04/14 03:43:01;;;;;;;2.28;0.57;;;3.10;99.90;;;;;;5003336;28;20052;-65
2021/04/14 03:45:35;;;;;;;1.30;0.57;;;3.20;99.90;;;;;;5005191;28;20041;-65
2021/04/14 03:48:02;;;;;;;3.75;0.93;;;3.20;99.90;;;;;;4995913;28;20072;-68
2021/04/14 03:50:29;;;;;;;2.95;0.82;;;3.20;99.90;;;;;;4999694;28;20047;-66
2021/04/14 03:53:07;;;;;;;2.65;0.70;;;3.20;99.90;;;;;;4997798;28;20069;-67
2021/04/14 03:55:34;;;;;;;2.05;1.30;;;3.20;99.90;;;;;;5000257;28;20064;-66
2021/04/14 03:58:01;;;;;;;2.70;0.50;;;3.20;99.90;;;;;;4993836;28;20057;-66
2021/04/14 04:00:27;;;;;;;3.05;0.98;;;3.20;99.90;;;;;;5001342;28;20057;-66
2021/04/14 04:02:54;;;;;;;1.48;0.50;;;3.20;99.90;;;;;;5001470;28;20034;-67
2021/04/14 04:05:20;;;;;;;2.75;0.60;;;3.20;99.90;;;;;;5002856;28;20044;-65
2021/04/14 04:07:47;;;;;;;3.38;0.47;;;3.20;99.90;;;;;;4997975;28;20057;-67
2021/04/14 04:10:13;;;;;;;2.78;0.80;;;3.10;99.90;;;;;;5001311;28;20057;-65
2021/04/14 04:12:40;;;;;;;3.17;1.10;;;3.10;99.90;;;;;;5002490;28;20783;-65
2021/04/14 04:15:12;;;;;;;4.10;0.70;;;3.10;99.90;;;;;;5002221;28;20422;-66
2021/04/14 04:17:39;;;;;;;1.98;0.80;;;3.10;99.90;;;;;;5003626;28;20058;-67
2021/04/14 04:20:09;;;;;;;3.47;0.68;;;3.10;99.90;;;;;;5003111;28;20056;-66
2021/04/14 04:22:35;;;;;;;1.13;0.50;;;3.10;99.90;;;;;;5010406;28;20069;-66
2021/04/14 04:25:03;;;;;;;0.65;0.65;;;3.20;99.90;;;;;;5007034;28;20046;-65
2021/04/14 04:27:29;;;;;;;0.93;0.60;;;3.20;99.90;;;;;;5005681;28;20057;-66
2021/04/14 04:29:56;;;;;;;2.65;0.85;;;3.20;99.90;;;;;;5003761;28;20139;-67
2021/04/14 04:32:22;;;;;;;7.82;1.23;;;3.30;99.90;;;;;;5005591;28;20059;-66
2021/04/14 04:34:50;;;;;;;1.33;0.55;;;3.30;99.90;;;;;;5002961;28;20042;-66
2021/04/14 04:37:16;;;;;;;8.27;0.77;;;3.40;99.90;;;;;;5005375;28;20081;-67
2021/04/14 04:39:42;;;;;;;3.05;1.10;;;3.40;99.90;;;;;;4998167;28;20054;-70
2021/04/14 04:42:09;;;;;;;1.48;0.90;;;3.40;99.90;;;;;;5002420;28;20057;-68
2021/04/14 04:44:35;;;;;;;7.13;1.48;;;3.50;99.90;;;;;;5002798;28;20061;-66
2021/04/14 04:47:02;;;;;;;5.80;0.85;;;3.50;99.90;;;;;;5005014;28;20065;-66
2021/04/14 04:49:29;;;;;;;1.75;0.60;;;3.60;99.90;;;;;;5002745;28;20084;-66
2021/04/14 04:51:55;;;;;;;3.30;0.90;;;3.60;99.90;;;;;;5001389;28;20111;-66
2021/04/14 04:54:21;;;;;;;5.25;0.80;;;3.70;99.90;;;;;;5001413;28;20050;-66
2021/04/14 04:56:48;;;;;;;0.60;0.43;;;3.70;99.90;;;;;;5003128;28;20042;-66
2021/04/14 04:59:14;;;;;;;0.80;0.73;;;3.80;99.90;;;;;;4997176;28;20046;-67
2021/04/14 05:01:42;;;;;;;2.65;0.57;;;3.80;99.90;;;;;;5000968;28;20054;-66
2021/04/14 05:04:11;;;;;;;1.75;1.05;;;3.80;99.90;;;;;;5003237;28;20081;-69
2021/04/14 05:06:39;;;;;;;0.70;0.43;;;3.70;99.90;;;;;;5002055;28;20054;-67
2021/04/14 05:09:06;;;;;;;0.68;0.30;;;3.80;99.90;;;;;;5000467;28;20054;-67
2021/04/14 05:11:32;;;;;;;3.53;0.80;;;3.70;99.90;;;;;;5001070;28;20054;-67
2021/04/14 05:13:59;;;;;;;2.45;0.50;;;3.70;99.90;;;;;;5000859;28;20442;-67
2021/04/14 05:16:26;;;;;;;2.92;0.80;;;3.70;99.90;;;;;;4978037;28;20050;-65
2021/04/14 05:18:52;;;;;;;2.40;0.93;;;3.80;99.90;;;;;;5001974;28;20399;-67
2021/04/14 05:21:20;;;;;;;14.48;1.88;;;3.80;99.90;;;;;;4999814;28;20664;-68
2021/04/14 05:23:51;;;;;;;5.18;0.70;;;3.80;99.90;;;;;;4999869;28;20084;-71
2021/04/14 05:26:17;;;;;;;9.00;1.33;;;3.90;99.90;;;;;;5005689;28;20049;-68
2021/04/14 05:28:44;;;;;;;2.60;1.13;;;3.90;99.90;;;;;;4998746;28;20161;-67
2021/04/14 05:31:12;;;;;;;2.65;1.15;;;3.90;99.90;;;;;;5000427;28;20046;-65
2021/04/14 05:33:39;;;;;;;14.25;1.65;;;3.90;99.90;;;;;;4999939;28;20057;-68
2021/04/14 05:36:07;;;;;;;6.63;0.95;;;4.00;99.90;;;;;;5003099;28;20172;-66
2021/04/14 05:38:34;;;;;;;6.32;0.90;;;4.00;99.90;;;;;;5003484;28;20053;-68
2021/04/14 05:41:00;;;;;;;12.02;1.30;;;4.10;99.90;;;;;;5003766;28;20054;-68
2021/04/14 05:43:30;;;;;;;4.05;1.60;;;4.00;99.90;;;;;;5002046;28;20045;-69
2021/04/14 05:46:05;;;;;;;7.18;1.52;;;4.00;99.90;;;;;;4981862;28;20050;-71
2021/04/14 05:48:32;;;;;;;3.60;1.83;;;4.10;99.90;;;;;;4998549;28;20056;-70
2021/04/14 05:51:04;;;;;;;34.58;2.33;;;4.10;99.90;;;;;;5000194;28;20050;-66
2021/04/14 05:53:35;;;;;;;9.45;0.95;;;4.10;99.90;;;;;;4999876;28;20060;-68
2021/04/14 05:56:03;;;;;;;6.03;1.30;;;4.00;99.90;;;;;;4999283;28;20050;-69
2021/04/14 05:58:29;;;;;;;7.32;1.40;;;4.10;99.90;;;;;;4999549;28;20123;-69
2021/04/14 06:00:56;;;;;;;4.38;1.30;;;4.10;99.90;;;;;;5000500;28;20061;-68
2021/04/14 06:03:23;;;;;;;1.00;0.60;;;4.10;99.90;;;;;;5002554;28;20053;-66
2021/04/14 06:05:54;;;;;;;9.27;1.45;;;4.10;99.90;;;;;;4999053;28;20095;-69
2021/04/14 06:08:21;;;;;;;3.10;0.70;;;4.10;99.90;;;;;;5001034;28;20049;-67
2021/04/14 06:10:47;;;;;;;4.85;1.02;;;4.20;99.90;;;;;;5001643;28;20050;-72
2021/04/14 06:13:16;;;;;;;5.65;1.00;;;4.20;99.90;;;;;;5003800;28;20839;-66
2021/04/14 06:15:43;;;;;;;1.38;0.90;;;4.20;99.90;;;;;;4997478;28;20065;-68
2021/04/14 06:18:10;;;;;;;3.63;0.73;;;4.20;99.90;;;;;;5002731;28;20062;-68
2021/04/14 06:20:37;;;;;;;13.70;2.15;;;4.30;99.90;;;;;;5000043;28;20184;-71
2021/04/14 06:23:11;;;;;;;5.57;1.50;;;4.30;99.90;;;;;;4997689;28;20061;-71
2021/04/14 06:25:42;;;;;;;7.68;1.27;;;4.20;99.90;;;;;;4981245;28;20054;-68
2021/04/14 06:28:09;;;;;;;4.03;1.23;;;4.20;99.90;;;;;;5000413;28;20066;-68
2021/04/14 06:30:37;;;;;;;1.27;0.90;;;4.20;99.90;;;;;;5000495;28;20154;-68
2021/04/14 06:33:07;;;;;;;3.70;1.05;;;4.20;99.90;;;;;;5003262;28;20077;-69
2021/04/14 06:35:35;;;;;;;1.67;1.58;;;4.30;99.90;;;;;;5001063;28;20058;-68
2021/04/14 06:38:04;;;;;;;1.58;0.93;;;4.30;99.90;;;;;;4999174;28;20046;-72
2021/04/14 06:43:21;;;;;;;6.18;1.10;;;4.30;99.90;;;;;;4998780;28;20153;-69
2021/04/14 06:45:51;;;;;;;6.13;1.42;;;4.30;99.90;;;;;;4985750;28;20057;-72
2021/04/14 06:48:24;;;;;;;;;;;4.40;99.90;;;;;;4662782;28;10000177;-68
2021/04/14 06:51:05;;;;;;;8.13;1.30;;;4.40;99.90;;;;;;1376314;28;10002156;-71
2021/04/14 06:53:59;;;;;;;4.47;0.95;;;4.50;99.90;;;;;;5001587;28;20773;-68
2021/04/14 06:56:28;;;;;;;5.20;0.95;;;4.50;99.90;;;;;;4997602;28;20095;-67
2021/04/14 06:59:03;;;;;;;5.03;1.17;;;4.50;99.90;;;;;;5000295;28;20053;-71
2021/04/14 07:01:36;;;;;;;3.17;0.55;;;4.50;99.90;;;;;;4998369;28;20158;-68
2021/04/14 07:04:14;;;;;;;3.85;0.82;;;4.50;99.90;;;;;;4998804;28;20054;-69
2021/04/14 07:06:43;;;;;;;2.17;0.57;;;4.50;99.90;;;;;;5000055;28;20088;-65
2021/04/14 07:09:32;;;;;;;6.63;1.25;;;4.50;99.90;;;;;;5000321;28;20072;-66
2021/04/14 07:12:00;;;;;;;2.58;0.47;;;4.60;99.90;;;;;;4997661;28;20092;-65
2021/04/14 07:14:28;;;;;;;3.40;1.10;;;4.60;99.90;;;;;;4981709;28;20145;-68
2021/04/14 07:17:01;;;;;;;6.63;0.85;;;4.60;99.90;;;;;;4999593;28;20054;-70
2021/04/14 07:19:34;;;;;;;5.43;1.27;;;4.70;99.90;;;;;;4998929;28;20129;-66
2021/04/14 07:22:14;;;;;;;4.72;2.55;;;4.70;99.90;;;;;;4998064;28;20050;-69
2021/04/14 07:25:05;;;;;;;5.85;1.25;;;4.70;99.90;;;;;;5000744;28;20395;-68
2021/04/14 07:27:47;;;;;;;4.65;1.05;;;4.70;99.90;;;;;;5001208;28;20507;-68
2021/04/14 07:30:20;;;;;;;3.95;0.90;;;4.80;99.90;;;;;;4997789;28;20053;-65
2021/04/14 07:33:09;;;;;;;1.27;0.80;;;4.80;99.90;;;;;;4999534;28;20042;-66
2021/04/14 07:36:00;;;;;;;12.48;2.53;;;4.90;99.90;;;;;;4999491;28;20050;-67
2021/04/14 07:38:52;;;;;;;2.92;1.05;;;4.90;99.90;;;;;;5000641;28;20060;-66
2021/04/14 07:41:50;;;;;;;1.77;1.10;;;4.90;99.90;;;;;;4999441;28;20108;-68
2021/04/14 07:44:27;;;;;;;4.25;0.95;;;5.00;99.90;;;;;;4995980;28;20049;-68
2021/04/14 07:46:53;;;;;;;0.70;0.55;;;5.00;99.90;;;;;;5003488;28;20860;-67
2021/04/14 07:49:20;;;;;;;2.55;1.35;;;5.00;99.90;;;;;;4998672;28;20069;-66
2021/04/14 07:51:47;;;;;;;2.45;0.75;;;5.10;99.90;;;;;;5000678;28;20120;-73
2021/04/14 07:54:18;;;;;;;1.90;1.10;;;4.90;99.90;;;;;;5001962;28;20104;-65
2021/04/14 07:56:54;;;;;;;4.63;1.88;;;4.90;99.90;;;;;;5005067;28;20050;-68
2021/04/14 07:59:28;;;;;;;6.45;1.90;;;5.00;99.90;;;;;;5005123;28;20561;-70
2021/04/14 08:01:57;;;;;;;2.38;1.25;;;5.10;99.90;;;;;;5001384;28;20177;-65
2021/04/14 08:04:30;;;;;;;4.78;1.02;;;5.10;99.90;;;;;;5004898;28;20081;-66
2021/04/14 08:07:10;;;;;;;5.63;1.30;;;5.00;99.90;;;;;;5005222;28;20053;-69
2021/04/14 08:09:46;;;;;;;7.03;2.10;;;5.00;99.90;;;;;;5001303;28;20073;-67
2021/04/14 08:12:14;;;;;;;2.75;0.85;;;5.00;99.90;;;;;;5002820;28;20069;-70
2021/04/14 08:14:42;;;;;;;14.38;1.63;;;5.10;99.90;;;;;;5001224;28;20096;-66
2021/04/14 08:17:22;;;;;;;6.55;1.38;;;5.20;99.90;;;;;;4985486;28;20053;-65
2021/04/14 08:20:09;;;;;;;6.90;1.07;;;5.20;99.90;;;;;;5001812;28;20117;-68
2021/04/14 08:22:35;;;;;;;2.70;1.30;;;5.30;99.90;;;;;;5002860;28;20050;-69
2021/04/14 08:25:06;;;;;;;6.10;1.02;;;5.20;99.90;;;;;;5005674;28;20117;-68
2021/04/14 08:27:37;;;;;;;8.85;2.72;;;5.10;99.90;;;;;;5005011;28;20050;-67
2021/04/14 08:30:16;;;;;;;4.97;1.13;;;5.20;99.90;;;;;;5003363;28;20141;-69
2021/04/14 08:32:44;;;;;;;7.95;1.35;;;5.10;99.90;;;;;;5004479;28;20061;-67
2021/04/14 08:35:33;;;;;;;1.35;0.88;;;5.20;99.90;;;;;;5004722;28;20071;-67
2021/04/14 08:38:15;;;;;;;13.48;1.40;;;5.20;99.90;;;;;;5001446;28;20471;-71
2021/04/14 08:40:52;;;;;;;8.02;2.40;;;5.10;99.90;;;;;;5001733;28;20045;-68
2021/04/14 08:43:22;;;;;;;3.47;1.70;;;5.10;99.90;;;;;;5003660;28;20053;-68
2021/04/14 08:46:33;;;;;;;7.55;1.73;;;5.10;99.90;;;;;;5001601;28;20061;-71
2021/04/14 08:49:14;;;;;;;1.10;0.88;;;5.10;99.90;;;;;;5001719;28;20145;-68
2021/04/14 08:51:43;;;;;;;3.78;1.40;;;5.20;99.90;;;;;;4997211;28;20196;-66
2021/04/14 08:54:25;;;;;;;2.92;0.82;;;5.20;99.90;;;;;;5002656;28;20411;-67
2021/04/14 08:56:53;;;;;;;6.47;1.80;;;5.20;99.90;;;;;;5002138;28;20046;-69
2021/04/14 08:59:21;;;;;;;5.47;1.00;;;5.20;99.90;;;;;;5005119;28;20557;-66
2021/04/14 09:01:50;;;;;;;1.42;1.30;;;5.20;99.90;;;;;;5000873;28;20046;-68
2021/04/14 09:04:17;;;;;;;3.95;1.23;;;5.10;99.90;;;;;;5002111;28;20064;-65
2021/04/14 09:06:46;;;;;;;10.40;3.08;;;5.10;99.90;;;;;;5003126;28;20101;-69
2021/04/14 09:09:18;;;;;;;1.30;0.85;;;5.00;99.90;;;;;;5000596;28;21124;-66
2021/04/14 09:11:55;;;;;;;4.65;0.88;;;5.00;99.90;;;;;;5001041;28;20115;-68
2021/04/14 09:14:28;;;;;;;5.60;1.15;;;5.10;99.90;;;;;;5002946;28;20573;-67
2021/04/14 09:17:04;;;;;;;12.55;1.30;;;5.10;99.90;;;;;;5002469;28;20049;-68
2021/04/14 09:19:39;;;;;;;2.38;1.42;;;5.10;99.90;;;;;;5002244;28;20054;-70
2021/04/14 09:22:15;;;;;;;2.97;1.35;;;5.10;99.90;;;;;;4999520;28;20051;-67
2021/04/14 09:24:45;;;;;;;4.63;1.50;;;5.10;99.90;;;;;;4999728;28;20045;-68
2021/04/14 09:27:20;;;;;;;2.55;1.17;;;5.10;99.90;;;;;;5000485;28;20537;-71
2021/04/14 09:29:56;;;;;;;26.35;4.07;;;5.10;99.90;;;;;;4999089;28;20060;-68
2021/04/14 09:32:46;;;;;;;2.53;1.20;;;5.20;99.90;;;;;;5000462;28;20046;-65
2021/04/14 09:35:23;;;;;;;1.40;0.80;;;5.20;99.90;;;;;;5001572;28;20446;-66
2021/04/14 09:37:52;;;;;;;3.42;1.17;;;5.20;99.90;;;;;;4995273;28;20074;-66
2021/04/14 09:40:34;;;;;;;7.18;1.17;;;5.10;99.90;;;;;;5002741;28;20100;-66
2021/04/14 09:43:03;;;;;;;6.75;1.55;;;5.20;99.90;;;;;;4999395;28;20042;-66
2021/04/14 09:45:34;;;;;;;1.08;0.77;;;5.40;99.90;;;;;;5002792;28;20108;-66
2021/04/14 09:48:14;;;;;;;1.52;0.93;;;5.40;99.90;;;;;;5000667;28;20056;-66
2021/04/14 09:50:44;;;;;;;2.65;0.93;;;5.30;99.90;;;;;;5001910;28;20045;-68
2021/04/14 09:53:28;;;;;;;9.13;1.55;;;5.40;99.90;;;;;;4999476;28;20073;-67
2021/04/14 09:56:21;;;;;;;0.95;0.57;;;5.40;99.90;;;;;;5001576;28;20104;-68
2021/04/14 09:58:49;;;;;;;3.75;0.70;;;5.30;99.90;;;;;;4999083;28;20045;-66
2021/04/14 10:01:22;;;;;;;1.52;0.55;;;5.40;99.90;;;;;;5002671;28;20046;-67
2021/04/14 10:03:49;;;;;;;1.05;0.60;;;5.50;99.90;;;;;;4996879;28;20065;-67
2021/04/14 10:06:20;;;;;;;4.05;0.52;;;5.50;99.90;;;;;;4999708;28;20054;-67
2021/04/14 10:08:48;;;;;;;5.60;0.70;;;5.50;99.90;;;;;;4996635;28;21998;-68
2021/04/14 10:11:33;;;;;;;3.88;0.98;;;5.60;99.90;;;;;;4984803;28;20073;-66
2021/04/14 10:14:27;;;;;;;6.57;0.77;;;5.70;99.90;;;;;;4994434;28;20045;-67
2021/04/14 10:17:07;;;;;;;1.58;0.85;;;5.70;99.90;;;;;;4998074;28;20057;-68
2021/04/14 10:19:35;;;;;;;4.25;1.27;;;5.80;99.90;;;;;;4998346;28;20088;-66
2021/04/14 10:22:28;;;;;;;3.70;1.25;;;5.90;99.90;;;;;;4998197;28;20079;-69
2021/04/14 10:25:21;;;;;;;5.05;1.70;;;5.90;99.90;;;;;;4992177;28;20681;-66
2021/04/14 10:27:51;;;;;;;10.80;1.02;;;6.10;99.90;;;;;;4994810;28;20773;-72
2021/04/14 10:30:22;;;;;;;1.58;0.32;;;5.90;99.90;;;;;;5000978;28;20100;-67
2021/04/14 10:32:50;;;;;;;3.80;0.93;;;5.90;99.90;;;;;;5001433;28;20049;-67
2021/04/14 10:35:23;;;;;;;1.58;0.25;;;6.00;99.90;;;;;;5000157;28;20146;-69
2021/04/14 10:37:52;;;;;;;2.85;0.55;;;5.90;99.90;;;;;;4996054;28;20054;-69
2021/04/14 10:40:22;;;;;;;1.17;0.40;;;5.90;99.90;;;;;;5000710;28;20046;-68
2021/04/14 10:42:50;;;;;;;4.40;2.00;;;5.90;99.90;;;;;;4996450;28;20498;-66
2021/04/14 10:45:19;;;;;;;5.55;0.90;;;5.90;99.90;;;;;;4998667;28;20058;-67
2021/04/14 10:47:48;;;;;;;5.22;0.60;;;5.90;99.90;;;;;;4996859;28;20049;-69
2021/04/14 10:50:26;;;;;;;0.50;0.30;;;5.90;99.90;;;;;;4986918;28;20116;-70
2021/04/14 10:53:04;;;;;;;4.63;0.77;;;6.00;99.90;;;;;;4997488;28;20051;-69
2021/04/14 10:55:45;;;;;;;1.42;0.50;;;5.90;99.90;;;;;;4999966;28;20053;-70
2021/04/14 10:58:31;;;;;;;1.30;0.50;;;5.90;99.90;;;;;;4996845;28;20050;-68
2021/04/14 11:01:10;;;;;;;5.38;1.40;;;6.00;99.90;;;;;;4999059;28;20530;-73
2021/04/14 11:03:37;;;;;;;5.00;1.10;;;6.00;99.90;;;;;;4995091;28;20077;-68
2021/04/14 11:06:06;;;;;;;5.72;1.05;;;6.00;99.90;;;;;;4999425;28;20045;-68
2021/04/14 11:08:34;;;;;;;0.50;0.40;;;6.00;99.90;;;;;;4996410;28;20073;-70
2021/04/14 11:11:02;;;;;;;5.30;1.42;;;5.90;99.90;;;;;;5000693;28;20096;-69
2021/04/14 11:13:31;;;;;;;0.45;0.45;;;6.00;99.90;;;;;;4998632;28;20066;-68
2021/04/14 11:15:58;;;;;;;0.60;0.50;;;5.90;99.90;;;;;;4997784;28;20057;-66
2021/04/14 11:18:34;;;;;;;3.92;1.38;;;6.00;99.90;;;;;;4995765;28;20046;-71
2021/04/14 11:23:36;;;;;;;2.65;0.63;;;6.00;99.90;;;;;;4995167;28;20046;-70
2021/04/14 11:26:18;;;;;;;2.42;0.60;;;6.00;99.90;;;;;;5002644;28;20061;-69
2021/04/14 11:28:54;;;;;;;2.05;0.57;;;6.00;99.90;;;;;;4998752;28;20507;-71
2021/04/14 11:31:40;;;;;;;4.82;1.35;;;6.10;99.90;;;;;;5001215;28;20042;-67
2021/04/14 11:34:19;;;;;;;9.27;2.40;;;6.00;99.90;;;;;;4998465;28;20042;-68
2021/04/14 11:37:23;;;;;;;4.65;0.60;;;6.10;99.90;;;;;;5001899;28;20137;-67
2021/04/14 11:40:00;;;;;;;2.40;1.05;;;6.10;99.90;;;;;;4975630;28;20136;-68
2021/04/14 11:42:52;;;;;;;0.95;0.43;;;6.10;99.90;;;;;;4999008;28;20459;-73
2021/04/14 11:45:39;;;;;;;2.22;0.40;;;6.00;99.90;;;;;;5002244;28;20537;-73
2021/04/14 11:48:07;;;;;;;2.45;0.75;;;6.00;99.90;;;;;;5000665;28;20083;-71
2021/04/14 11:50:34;;;;;;;1.73;0.73;;;6.00;99.90;;;;;;5003137;28;20510;-69
2021/04/14 11:53:23;;;;;;;2.45;0.75;;;6.00;99.90;;;;;;5000358;28;20224;-70
2021/04/14 11:55:50;;;;;;;2.63;0.82;;;6.10;99.90;;;;;;5001485;28;20062;-69
2021/04/14 11:58:39;;;;;;;1.58;0.50;;;6.10;99.90;;;;;;5002935;28;20069;-70
2021/04/14 12:01:18;;;;;;;2.60;0.60;;;6.20;99.90;;;;;;5004528;28;20054;-68
2021/04/14 12:03:46;;;;;;;3.78;0.55;;;6.20;99.90;;;;;;4994412;28;20762;-69
2021/04/14 12:06:12;;;;;;;5.53;2.70;;;6.10;99.90;;;;;;5001393;28;20057;-68
2021/04/14 12:08:38;;;;;;;3.70;0.75;;;6.10;99.90;;;;;;4999993;28;20042;-68
2021/04/14 12:11:15;;;;;;;6.43;1.23;;;6.00;99.90;;;;;;5001779;28;20058;-70
2021/04/14 12:13:42;;;;;;;1.02;0.93;;;5.80;99.90;;;;;;5003275;28;20046;-69
2021/04/14 12:16:08;;;;;;;1.02;0.47;;;5.90;99.90;;;;;;5003572;28;20045;-67
2021/04/14 12:18:35;;;;;;;0.57;0.43;;;6.00;99.90;;;;;;4985093;28;20084;-65
2021/04/14 12:21:01;;;;;;;1.90;0.45;;;5.90;99.90;;;;;;5002169;28;20053;-69
2021/04/14 12:23:27;;;;;;;2.75;1.33;;;5.90;99.90;;;;;;5000091;28;20046;-69
2021/04/14 12:25:54;;;;;;;4.72;0.70;;;5.80;99.90;;;;;;4997356;28;21023;-67
2021/04/14 12:28:20;;;;;;;3.78;0.43;;;5.90;99.90;;;;;;5003230;28;20038;-67
2021/04/14 12:30:47;;;;;;;5.15;0.77;;;5.90;99.90;;;;;;5001537;28;20051;-71
2021/04/14 12:33:13;;;;;;;11.75;1.50;;;5.90;99.90;;;;;;5002169;28;20061;-67
2021/04/14 12:35:40;;;;;;;5.25;0.82;;;6.10;99.90;;;;;;5001306;28;20065;-68
2021/04/14 12:38:07;;;;;;;6.15;2.13;;;6.30;99.90;;;;;;5002367;28;20108;-67
2021/04/14 12:40:33;;;;;;;4.95;0.90;;;6.20;99.90;;;;;;5000262;28;20388;-69
2021/04/14 12:43:00;;;;;;;9.80;0.95;;;6.20;99.90;;;;;;5001732;28;20057;-67
2021/04/14 12:45:46;;;;;;;1.05;0.40;;;6.30;99.90;;;;;;5000431;28;20042;-67
2021/04/14 12:48:26;;;;;;;3.13;1.30;;;6.10;99.90;;;;;;5001925;28;20042;-69
2021/04/14 12:51:07;;;;;;;;;;;6.10;99.90;;;;;;4994495;28;20123;-71
2021/04/14 12:53:39;;;;;;;9.10;1.77;;;6.10;99.90;;;;;;4998178;28;20010;-69
2021/04/14 12:56:08;;;;;;;1.38;0.47;;;6.10;99.90;;;;;;4999468;28;20081;-67
2021/04/14 12:58:39;;;;;;;1.98;0.95;;;6.00;99.90;;;;;;5002702;28;20053;-70
2021/04/14 13:01:09;;;;;;;0.98;0.88;;;6.20;99.90;;;;;;4985288;28;20046;-67
2021/04/14 13:03:51;;;;;;;4.05;0.82;;;6.00;99.90;;;;;;5003235;28;20076;-69
2021/04/14 13:06:49;;;;;;;4.40;1.13;;;6.10;99.90;;;;;;4996912;28;20164;-67
2021/04/14 13:09:17;;;;;;;2.47;0.60;;;6.10;99.90;;;;;;5002880;28;20061;-70
2021/04/14 13:11:49;;;;;;;0.43;0.40;;;5.90;99.90;;;;;;4998223;28;20053;-68
2021/04/14 13:14:15;;;;;;;2.72;1.23;;;5.90;99.90;;;;;;5003779;28;20783;-67
2021/04/14 13:16:53;;;;;;;1.90;0.40;;;5.90;99.90;;;;;;4999658;28;20076;-73
2021/04/14 13:19:21;;;;;;;9.30;1.98;;;6.10;99.90;;;;;;5003452;28;20519;-68
2021/04/14 13:22:16;;;;;;;0.90;0.70;;;6.20;99.90;;;;;;4998267;28;20050;-70
2021/04/14 13:24:47;;;;;;;7.35;0.65;;;6.40;99.90;;;;;;4997584;28;20120;-71